createdAt,value
2022-08-17T03:48:55.419Z,19.82
2022-08-17T03:52:17.589Z,19.75
2022-08-17T03:55:39.059Z,19.75
2022-08-17T03:58:42.145Z,19.72
2022-08-17T04:01:46.571Z,19.73
2022-08-17T04:04:52.673Z,19.73
2022-08-17T04:07:55.676Z,19.73
2022-08-17T04:11:00.929Z,19.67
2022-08-17T04:14:04.999Z,19.69
2022-08-17T04:17:07.943Z,19.68
2022-08-17T04:20:12.877Z,19.72
2022-08-17T04:23:18.652Z,19.73
2022-08-17T04:26:53.721Z,19.81
2022-08-17T04:29:49.954Z,19.91
2022-08-17T04:33:14.084Z,20.01
2022-08-17T04:36:17.416Z,20.17
2022-08-17T04:39:19.968Z,20.25
2022-08-17T04:42:22.810Z,20.32
2022-08-17T04:45:25.926Z,20.39
2022-08-17T04:48:40.459Z,20.48
2022-08-17T04:51:51.036Z,20.57
2022-08-17T04:54:57.680Z,20.67
2022-08-17T04:58:00.441Z,20.81
2022-08-17T05:01:05.903Z,20.95
2022-08-17T05:04:33.220Z,21.05
2022-08-17T05:07:35.475Z,21.18
2022-08-17T05:10:45.491Z,21.31
2022-08-17T05:13:50.262Z,21.38
2022-08-17T05:16:53.041Z,21.50
2022-08-17T05:19:55.953Z,21.58
2022-08-17T05:23:01.795Z,21.65
2022-08-17T05:26:04.664Z,21.76
2022-08-17T05:29:10.436Z,21.87
2022-08-17T05:32:39.173Z,21.92
2022-08-17T05:35:39.830Z,22.10
2022-08-17T05:38:43.310Z,22.19
2022-08-17T05:41:48.114Z,22.37
2022-08-17T05:44:50.918Z,22.38
2022-08-17T05:47:53.655Z,22.47
2022-08-17T05:51:10.947Z,22.66
2022-08-17T05:54:45.746Z,22.84
2022-08-17T05:58:14.894Z,23.02
2022-08-17T06:01:29.981Z,23.14
2022-08-17T06:05:04.760Z,23.30
2022-08-17T06:08:20.610Z,23.53
2022-08-17T06:11:58.740Z,23.71
2022-08-17T06:15:04.040Z,23.88
2022-08-17T06:18:13.725Z,24.02
2022-08-17T06:21:19.932Z,24.03
2022-08-17T06:24:46.620Z,24.24
2022-08-17T06:27:56.022Z,24.40
2022-08-17T06:31:12.642Z,24.54
2022-08-17T06:34:15.625Z,24.69
2022-08-17T06:37:54.754Z,24.83
2022-08-17T06:41:22.519Z,24.94
2022-08-17T06:45:04.727Z,25.05
2022-08-17T06:48:25.459Z,25.26
2022-08-17T06:51:36.209Z,25.44
2022-08-17T06:58:16.141Z,25.65
2022-08-17T07:01:25.205Z,25.68
2022-08-17T07:04:31.514Z,25.90
2022-08-17T07:07:56.834Z,26.10
2022-08-17T07:11:14.424Z,26.21
2022-08-17T07:14:55.906Z,26.40
2022-08-17T07:18:00.685Z,26.45
2022-08-17T07:21:17.559Z,26.60
2022-08-17T07:24:45.134Z,26.87
2022-08-17T07:35:53.708Z,27.40
2022-08-17T07:38:58.203Z,27.58
2022-08-17T07:42:05.119Z,27.84
2022-08-17T07:45:28.418Z,28.00
2022-08-17T07:48:36.654Z,28.15
2022-08-17T07:51:42.505Z,28.21
2022-08-17T07:54:45.061Z,28.20
2022-08-17T07:57:57.423Z,28.38
2022-08-17T08:01:11.067Z,28.42
2022-08-17T08:04:29.152Z,28.64
2022-08-17T08:07:50.539Z,28.99
2022-08-17T08:11:19.083Z,29.26
2022-08-17T08:14:29.614Z,29.48
2022-08-17T08:17:36.663Z,29.63
2022-08-17T08:20:53.895Z,29.72
2022-08-17T08:24:05.416Z,29.92
2022-08-17T08:27:35.617Z,30.15
2022-08-17T08:30:46.999Z,30.09
2022-08-17T08:34:09.142Z,30.01
2022-08-17T08:37:49.983Z,30.16
2022-08-17T08:41:12.833Z,30.24
2022-08-17T08:45:01.258Z,30.27
2022-08-17T08:48:05.091Z,30.40
2022-08-17T08:51:27.723Z,30.66
2022-08-17T08:54:36.333Z,30.64
2022-08-17T08:57:56.925Z,31.04
2022-08-17T09:01:08.811Z,31.50
2022-08-17T09:05:10.659Z,31.66
2022-08-17T09:08:16.574Z,31.79
2022-08-17T09:12:01.923Z,32.11
2022-08-17T09:15:27.682Z,32.37
2022-08-17T09:19:02.961Z,32.39
2022-08-17T09:22:22.103Z,32.13
2022-08-17T09:25:29.202Z,32.32
2022-08-17T09:28:37.245Z,32.35
2022-08-17T09:31:49.421Z,32.60
2022-08-17T09:35:01.474Z,32.82
2022-08-17T09:38:22.799Z,32.87
2022-08-17T09:41:25.477Z,32.95
2022-08-17T09:44:59.576Z,33.17
2022-08-17T09:48:05.710Z,33.01
2022-08-17T09:51:32.398Z,33.11
2022-08-17T09:54:40.852Z,32.94
2022-08-17T09:58:04.944Z,33.28
2022-08-17T10:01:18.841Z,33.22
2022-08-17T10:04:47.772Z,33.27
2022-08-17T10:08:03.778Z,33.52
2022-08-17T10:11:45.692Z,33.42
2022-08-17T10:15:13.484Z,33.46
2022-08-17T10:18:43.520Z,33.53
2022-08-17T10:22:32.961Z,33.84
2022-08-17T10:26:12.990Z,34.12
2022-08-17T10:29:22.828Z,34.37
2022-08-17T10:32:35.773Z,34.55
2022-08-17T10:35:44.285Z,34.82
2022-08-17T10:38:51.346Z,35.18
2022-08-17T10:42:00.559Z,34.79
2022-08-17T10:45:15.129Z,34.71
2022-08-17T10:48:28.144Z,34.90
2022-08-17T10:51:38.098Z,35.43
2022-08-17T10:54:47.315Z,35.90
2022-08-17T10:57:51.144Z,36.20
2022-08-17T11:00:53.857Z,36.48
2022-08-17T11:03:59.432Z,36.02
2022-08-17T11:07:25.837Z,36.03
2022-08-17T11:10:42.886Z,36.70
2022-08-17T11:14:04.632Z,37.23
2022-08-17T11:17:13.273Z,37.93
2022-08-17T11:20:22.928Z,38.00
2022-08-17T11:23:45.824Z,38.40
2022-08-17T11:27:12.271Z,38.75
2022-08-17T11:30:44.578Z,39.76
2022-08-17T11:33:58.816Z,39.94
2022-08-17T11:37:16.937Z,39.97
2022-08-17T11:40:29.458Z,40.32
2022-08-17T11:43:56.751Z,41.92
2022-08-17T11:48:09.004Z,42.93
2022-08-17T11:51:35.088Z,41.95
2022-08-17T11:54:45.270Z,42.69
2022-08-17T11:58:04.228Z,42.91
2022-08-17T12:01:32.849Z,43.84
2022-08-17T12:04:36.025Z,44.44
2022-08-17T12:07:46.302Z,42.08
2022-08-17T12:12:01.640Z,40.11
2022-08-17T12:15:10.560Z,41.04
2022-08-17T12:18:32.477Z,43.03
2022-08-17T12:21:54.204Z,44.82
2022-08-17T12:25:16.571Z,45.13
2022-08-17T12:28:36.436Z,45.83
2022-08-17T12:31:47.205Z,46.46
2022-08-17T12:34:51.239Z,47.03
2022-08-17T12:37:54.711Z,47.72
2022-08-17T12:40:58.311Z,47.92
2022-08-17T12:44:15.481Z,47.75
2022-08-17T12:47:22.190Z,47.19
2022-08-17T12:50:29.107Z,48.03
2022-08-17T12:53:35.237Z,48.62
2022-08-17T12:56:42.239Z,48.06
2022-08-17T12:59:52.636Z,49.09
2022-08-17T13:03:07.795Z,49.05
2022-08-17T13:06:17.019Z,47.34
2022-08-17T13:09:35.603Z,45.67
2022-08-17T13:12:42.664Z,42.29
2022-08-17T13:16:15.525Z,41.00
2022-08-17T13:19:40.007Z,44.02
2022-08-17T13:22:53.257Z,46.52
2022-08-17T13:26:06.166Z,47.68
2022-08-17T13:29:24.113Z,48.79
2022-08-17T13:32:47.284Z,49.34
2022-08-17T13:35:52.218Z,49.09
2022-08-17T13:39:07.425Z,49.73
2022-08-17T13:42:50.184Z,49.90
2022-08-17T13:46:09.104Z,49.31
2022-08-17T13:49:13.980Z,49.35
2022-08-17T13:52:37.800Z,48.56
2022-08-17T13:56:36.904Z,48.45
2022-08-17T13:59:55.126Z,47.62
2022-08-17T14:03:00.905Z,47.66
2022-08-17T14:06:05.607Z,48.16
2022-08-17T14:09:09.015Z,47.30
2022-08-17T14:12:16.050Z,46.03
2022-08-17T14:15:23.578Z,46.42
2022-08-17T14:18:56.587Z,44.35
2022-08-17T14:22:00.601Z,41.73
2022-08-17T14:25:04.463Z,40.22
2022-08-17T14:28:11.242Z,39.48
2022-08-17T14:31:14.156Z,38.73
2022-08-17T14:34:17.141Z,38.62
2022-08-17T14:37:21.777Z,38.08
2022-08-17T14:40:25.328Z,37.57
2022-08-17T14:43:28.246Z,37.19
2022-08-17T14:46:31.752Z,36.97
2022-08-17T14:49:34.513Z,36.72
2022-08-17T14:52:39.584Z,36.70
2022-08-17T14:55:45.784Z,36.64
2022-08-17T14:58:51.387Z,36.40
2022-08-17T15:01:55.940Z,36.31
2022-08-17T15:05:01.718Z,36.21
2022-08-17T15:08:06.273Z,36.16
2022-08-17T15:11:11.801Z,35.87
2022-08-17T15:14:17.383Z,35.64
2022-08-17T15:17:20.009Z,35.46
2022-08-17T15:20:29.797Z,35.16
2022-08-17T15:23:33.480Z,34.95
2022-08-17T15:26:37.699Z,34.75
2022-08-17T15:29:40.543Z,34.66
